createdAt,value
2019-04-20T00:00:17.095Z,77.61
2019-04-20T00:01:22.901Z,78.13
2019-04-20T00:02:19.347Z,78.13
2019-04-20T00:03:16.064Z,78.23
2019-04-20T00:04:21.194Z,78.23
2019-04-20T00:05:17.046Z,78.55
2019-04-20T00:06:17.005Z,78.17
2019-04-20T00:07:18.717Z,78.44
2019-04-20T00:08:23.396Z,77.51
2019-04-20T00:09:21.091Z,77.86
2019-04-20T00:10:20.013Z,78.06
2019-04-20T00:11:25.449Z,79.00
2019-04-20T00:12:24.914Z,78.17
2019-04-20T00:13:29.036Z,78.69
2019-04-20T00:14:22.418Z,78.62
2019-04-20T00:15:17.530Z,78.20
2019-04-20T00:16:16.854Z,78.41
2019-04-20T00:17:15.959Z,79.49
2019-04-20T00:18:16.981Z,79.87
2019-04-20T00:19:24.328Z,79.59
2019-04-20T00:20:23.826Z,79.66
2019-04-20T00:21:17.953Z,80.49
2019-04-20T00:22:34.382Z,80.15
2019-04-20T00:23:22.851Z,79.21
2019-04-20T00:24:23.420Z,79.41
2019-04-20T00:25:20.160Z,78.89
2019-04-20T00:26:26.560Z,78.96
2019-04-20T00:27:40.241Z,78.65
2019-04-20T00:28:35.167Z,77.92
2019-04-20T00:29:35.569Z,78.23
2019-04-20T00:30:43.411Z,78.65
2019-04-20T00:31:30.773Z,78.55
2019-04-20T00:32:29.387Z,77.61
2019-04-20T00:33:31.979Z,78.23
2019-04-20T00:34:22.863Z,78.65
2019-04-20T00:35:16.950Z,78.13
2019-04-20T00:36:16.154Z,78.03
2019-04-20T00:37:16.986Z,78.23
2019-04-20T00:38:16.037Z,77.82
2019-04-20T00:39:17.242Z,78.23
2019-04-20T00:40:17.037Z,78.65
2019-04-20T00:41:17.743Z,76.89
2019-04-20T00:42:17.891Z,77.92
2019-04-20T00:43:21.252Z,77.58
2019-04-20T00:44:23.270Z,76.99
2019-04-20T00:45:23.509Z,77.20
2019-04-20T00:46:26.290Z,76.78
2019-04-20T00:47:30.677Z,77.61
2019-04-20T00:48:31.530Z,77.86
2019-04-20T00:49:32.211Z,77.55
2019-04-20T00:50:35.819Z,78.38
2019-04-20T00:51:32.730Z,78.17
2019-04-20T00:52:31.533Z,77.96
2019-04-20T00:53:34.253Z,78.72
2019-04-20T00:54:17.949Z,78.20
2019-04-20T00:55:16.916Z,79.28
2019-04-20T00:56:16.152Z,79.49
2019-04-20T00:57:25.909Z,80.53
2019-04-20T00:58:23.407Z,80.67
2019-04-20T00:59:27.709Z,80.67
2019-04-20T01:00:31.569Z,80.77
2019-04-20T01:01:36.192Z,81.19
2019-04-20T01:02:32.592Z,80.67
2019-04-20T01:03:34.049Z,80.77
2019-04-20T01:04:38.419Z,80.67
2019-04-20T01:05:28.229Z,81.81
2019-04-20T01:07:28.931Z,80.88
2019-04-20T01:08:17.135Z,81.09
2019-04-20T01:09:16.016Z,80.67
2019-04-20T01:10:15.353Z,80.67
2019-04-20T01:11:16.759Z,82.03
2019-04-20T01:12:22.507Z,80.05
2019-04-20T01:13:20.071Z,79.52
2019-04-20T01:14:21.092Z,80.08
2019-04-20T01:15:25.557Z,80.40
2019-04-20T01:16:25.182Z,79.87
2019-04-20T01:17:16.314Z,79.56
2019-04-20T01:18:15.320Z,80.85
2019-04-20T01:19:15.809Z,81.89
2019-04-20T01:20:15.292Z,82.93
2019-04-20T01:21:20.279Z,82.51
2019-04-20T01:22:19.908Z,82.62
2019-04-20T01:23:20.922Z,82.41
2019-04-20T01:25:35.283Z,82.41
2019-04-20T01:26:31.340Z,82.31
2019-04-20T01:27:42.153Z,82.93
2019-04-20T01:28:46.430Z,82.31
2019-04-20T01:29:39.206Z,82.03
2019-04-20T01:30:37.738Z,81.51
2019-04-20T01:31:38.446Z,81.93
2019-04-20T01:32:49.199Z,82.38
2019-04-20T01:33:42.826Z,82.87
2019-04-20T01:34:42.683Z,83.28
2019-04-20T01:35:44.117Z,83.91
2019-04-20T01:36:49.083Z,82.24
2019-04-20T01:37:46.907Z,83.11
2019-04-20T01:38:45.107Z,83.42
2019-04-20T01:39:37.070Z,83.74
2019-04-20T01:40:31.556Z,83.07
2019-04-20T01:41:30.495Z,82.90
2019-04-20T01:42:30.050Z,82.38
2019-04-20T01:43:31.181Z,82.80
2019-04-20T01:44:35.400Z,82.59
2019-04-20T01:45:35.701Z,83.01
2019-04-20T01:46:31.640Z,83.67
2019-04-20T01:47:36.725Z,83.25
2019-04-20T01:48:33.980Z,83.25
2019-04-20T01:49:33.599Z,83.88
2019-04-20T01:50:33.714Z,83.78
2019-04-20T01:51:39.281Z,84.19
2019-04-20T01:52:45.733Z,84.61
2019-04-20T01:53:47.201Z,84.40
2019-04-20T01:54:52.403Z,83.81
2019-04-20T01:56:54.550Z,85.13
2019-04-20T01:58:08.040Z,84.82
2019-04-20T01:59:02.621Z,83.88
2019-04-20T01:59:54.173Z,84.34
2019-04-20T02:00:45.879Z,84.44
2019-04-20T02:01:45.584Z,85.38
2019-04-20T02:02:50.359Z,84.75
2019-04-20T02:03:48.533Z,85.11
2019-04-20T02:04:48.255Z,85.17
2019-04-20T02:05:53.125Z,84.96
2019-04-20T02:06:50.361Z,84.96
2019-04-20T02:07:48.783Z,85.17
2019-04-20T02:08:46.192Z,86.11
2019-04-20T02:09:51.460Z,86.11
2019-04-20T02:10:51.846Z,85.90
2019-04-20T02:11:47.363Z,85.52
2019-04-20T02:12:50.287Z,84.58
2019-04-20T02:13:51.603Z,85.83
2019-04-20T02:14:51.706Z,85.63
2019-04-20T02:15:50.818Z,86.43
2019-04-20T02:16:50.926Z,87.15
2019-04-20T02:18:01.278Z,87.15
2019-04-20T02:19:06.594Z,86.84
2019-04-20T02:20:05.457Z,87.26
2019-04-20T02:21:05.188Z,86.00
2019-04-20T02:22:00.241Z,86.74
2019-04-20T02:23:01.857Z,85.90
2019-04-20T02:23:51.555Z,86.32
2019-04-20T02:24:44.878Z,86.63
2019-04-20T02:25:44.011Z,86.43
2019-04-20T02:26:57.910Z,85.90
2019-04-20T02:27:49.672Z,85.17
2019-04-20T02:29:14.540Z,85.86
2019-04-20T02:30:13.485Z,85.86
2019-04-20T02:31:28.565Z,85.86
2019-04-20T02:33:29.424Z,85.13
2019-04-20T02:34:15.740Z,84.82
2019-04-20T02:35:40.364Z,85.24
2019-04-20T02:37:24.566Z,85.44
2019-04-20T02:38:48.937Z,85.30
2019-04-20T02:40:15.991Z,83.98
2019-04-20T02:41:18.240Z,84.92
2019-04-20T02:42:19.738Z,85.82
2019-04-20T02:43:15.102Z,85.93
2019-04-20T02:44:24.166Z,85.93
2019-04-20T02:45:33.344Z,84.57
2019-04-20T02:46:17.849Z,85.51
2019-04-20T02:47:21.401Z,83.22
2019-04-20T02:48:13.522Z,83.39
2019-04-20T02:50:19.204Z,83.53
2019-04-20T02:51:14.922Z,83.63
2019-04-20T02:52:20.910Z,84.36
2019-04-20T02:54:19.022Z,83.36
2019-04-20T02:55:16.991Z,84.09
2019-04-20T02:58:23.900Z,85.20
2019-04-20T02:59:47.454Z,84.47
2019-04-20T03:00:09.161Z,84.74
2019-04-20T03:01:03.900Z,84.84
2019-04-20T03:01:59.101Z,83.70
2019-04-20T03:02:55.925Z,84.01
2019-04-20T03:03:50.400Z,84.53
2019-04-20T03:04:56.560Z,84.12
2019-04-20T03:06:03.675Z,84.12
2019-04-20T03:06:58.389Z,83.04
2019-04-20T03:08:02.843Z,83.18
2019-04-20T03:09:11.281Z,83.80
2019-04-20T03:10:01.079Z,83.49
2019-04-20T03:11:09.281Z,83.28
2019-04-20T03:12:08.181Z,83.18
2019-04-20T03:13:08.772Z,83.18
2019-04-20T03:14:08.402Z,83.35
2019-04-20T03:14:59.736Z,82.97
2019-04-20T03:16:03.556Z,83.70
2019-04-20T03:17:12.836Z,83.18
2019-04-20T03:18:03.571Z,83.14
2019-04-20T03:18:58.446Z,83.49
2019-04-20T03:19:56.543Z,83.45
2019-04-20T03:21:07.615Z,83.35
2019-04-20T03:22:09.536Z,83.14
2019-04-20T03:24:11.733Z,83.14
2019-04-20T03:25:08.905Z,83.25
2019-04-20T03:26:09.518Z,83.76
2019-04-20T03:27:00.761Z,82.93
2019-04-20T03:28:05.064Z,83.14
2019-04-20T03:29:10.196Z,82.72
2019-04-20T03:30:04.222Z,82.82
2019-04-20T03:33:23.154Z,82.89
2019-04-20T03:34:40.606Z,82.37
2019-04-20T03:36:16.219Z,82.13
2019-04-20T03:37:07.366Z,82.03
2019-04-20T03:38:06.040Z,81.71
2019-04-20T03:39:01.437Z,81.29
2019-04-20T03:39:59.956Z,81.40
2019-04-20T03:40:56.562Z,80.63
2019-04-20T03:41:48.764Z,80.74
2019-04-20T03:42:44.679Z,80.53
2019-04-20T03:43:43.557Z,80.63
2019-04-20T03:44:50.156Z,79.55
2019-04-20T03:45:51.844Z,79.52
2019-04-20T03:46:51.795Z,78.55
2019-04-20T03:47:57.150Z,75.98
2019-04-20T03:49:01.041Z,73.36
2019-04-20T03:50:04.658Z,70.18
2019-04-20T03:51:02.102Z,70.50
2019-04-20T03:52:03.321Z,68.98
2019-04-20T03:53:10.020Z,66.64
2019-04-20T03:54:05.687Z,64.76
2019-04-20T03:54:55.305Z,63.87
2019-04-20T03:55:56.724Z,63.81
2019-04-20T03:57:02.330Z,62.34
2019-04-20T03:58:03.478Z,61.15
2019-04-20T03:58:55.445Z,60.12
2019-04-20T04:00:16.252Z,59.70
2019-04-20T04:01:02.217Z,59.68
2019-04-20T04:03:15.993Z,58.52
2019-04-20T04:04:10.145Z,57.34
2019-04-20T04:05:04.591Z,55.62
2019-04-20T04:05:55.535Z,55.36
2019-04-20T04:06:50.995Z,56.95
2019-04-20T04:07:50.885Z,56.46
2019-04-20T04:08:58.673Z,55.26
2019-04-20T04:09:59.780Z,55.77
2019-04-20T04:11:03.278Z,56.18
2019-04-20T04:12:00.204Z,55.10
2019-04-20T04:12:45.110Z,53.20
2019-04-20T04:13:42.393Z,52.28
2019-04-20T04:14:42.864Z,51.95
2019-04-20T04:15:48.753Z,51.21
2019-04-20T04:16:49.830Z,51.56
2019-04-20T04:17:45.595Z,53.03
2019-04-20T04:18:47.180Z,51.85
2019-04-20T04:19:53.405Z,53.69
2019-04-20T04:20:50.005Z,54.00
2019-04-20T04:21:58.105Z,54.82
2019-04-20T04:23:02.505Z,54.33
2019-04-20T04:23:59.978Z,53.97
2019-04-20T04:24:58.654Z,53.49
2019-04-20T04:26:00.814Z,52.61
2019-04-20T04:27:00.463Z,52.61
2019-04-20T04:28:01.337Z,53.85
2019-04-20T04:29:02.677Z,54.85
2019-04-20T04:30:03.280Z,54.61
2019-04-20T04:31:11.954Z,54.02
2019-04-20T04:32:12.986Z,54.28
2019-04-20T04:33:34.186Z,52.54
2019-04-20T04:34:03.604Z,53.54
2019-04-20T04:34:58.917Z,51.36
2019-04-20T04:35:59.244Z,51.34
2019-04-20T04:37:03.438Z,51.01
2019-04-20T04:38:02.600Z,49.88
2019-04-20T04:39:03.818Z,49.75
2019-04-20T04:40:14.868Z,49.98
2019-04-20T04:41:10.650Z,50.01
2019-04-20T04:42:10.224Z,51.54
2019-04-20T04:43:05.456Z,50.16
2019-04-20T04:43:59.470Z,49.98
2019-04-20T04:44:51.453Z,49.77
2019-04-20T04:45:43.031Z,49.32
2019-04-20T04:46:50.467Z,47.49
2019-04-20T04:47:43.028Z,45.84
2019-04-20T04:48:45.986Z,46.22
2019-04-20T04:49:49.835Z,45.22
2019-04-20T04:50:50.690Z,47.45
2019-04-20T04:51:51.985Z,47.53
2019-04-20T04:52:53.900Z,46.37
2019-04-20T04:53:52.996Z,47.11
2019-04-20T04:54:52.956Z,45.92
2019-04-20T04:55:52.302Z,45.12
2019-04-20T04:56:44.181Z,45.76
2019-04-20T04:57:43.020Z,45.81
2019-04-20T04:58:42.604Z,46.41
2019-04-20T04:59:42.544Z,47.23
2019-04-20T05:00:42.578Z,50.02
2019-04-20T05:01:56.782Z,49.93
2019-04-20T05:02:48.844Z,50.05
2019-04-20T05:04:13.046Z,49.77
2019-04-20T05:05:05.684Z,49.26
2019-04-20T05:06:03.486Z,48.50
2019-04-20T05:06:59.532Z,47.52
2019-04-20T05:07:58.424Z,47.97
2019-04-20T05:08:48.956Z,47.25
2019-04-20T05:09:42.878Z,46.59
2019-04-20T05:10:41.746Z,45.26
2019-04-20T05:11:42.744Z,46.11
2019-04-20T05:12:42.228Z,46.08
2019-04-20T05:13:48.557Z,44.84
2019-04-20T05:14:53.912Z,44.43
2019-04-20T05:15:55.538Z,44.46
2019-04-20T05:16:59.364Z,43.30
2019-04-20T05:18:02.125Z,43.71
2019-04-20T05:19:05.806Z,42.53
2019-04-20T05:20:03.629Z,43.63
2019-04-20T05:21:06.923Z,43.35
2019-04-20T05:22:16.320Z,43.24
2019-04-20T05:23:01.238Z,42.37
2019-04-20T05:23:53.622Z,42.47
2019-04-20T05:25:06.779Z,42.83
2019-04-20T05:26:10.118Z,43.67
2019-04-20T05:27:08.770Z,43.00
2019-04-20T05:28:03.056Z,41.92
2019-04-20T05:28:52.708Z,41.66
2019-04-20T05:29:42.778Z,42.21
2019-04-20T05:30:46.850Z,40.12
2019-04-20T05:31:49.079Z,38.25
2019-04-20T05:33:01.476Z,38.03
2019-04-20T05:34:08.493Z,38.45
2019-04-20T05:35:08.475Z,38.82
2019-04-20T05:36:01.845Z,37.15
2019-04-20T05:37:05.472Z,37.16
2019-04-20T05:38:06.957Z,37.03
2019-04-20T05:39:13.107Z,36.21
2019-04-20T05:40:04.715Z,36.74
2019-04-20T05:41:04.542Z,36.54
2019-04-20T05:42:03.358Z,36.85
2019-04-20T05:43:01.894Z,37.29
2019-04-20T05:43:59.458Z,37.05
2019-04-20T05:45:03.287Z,37.38
2019-04-20T05:45:56.549Z,36.54
2019-04-20T05:47:09.277Z,36.22
2019-04-20T05:47:58.582Z,35.17
2019-04-20T05:49:03.326Z,34.66
2019-04-20T05:49:57.294Z,36.78
2019-04-20T05:50:56.044Z,38.92
2019-04-20T05:52:04.113Z,38.90
2019-04-20T05:53:08.790Z,38.51
2019-04-20T05:54:04.441Z,38.81
2019-04-20T05:55:03.029Z,38.83
2019-04-20T05:56:01.002Z,41.33
2019-04-20T05:57:12.553Z,39.99
2019-04-20T05:58:02.106Z,41.52
2019-04-20T05:59:00.849Z,40.01
2019-04-20T06:00:23.475Z,40.64
2019-04-20T06:01:05.596Z,40.19
2019-04-20T06:02:07.684Z,43.32
2019-04-20T06:03:02.324Z,41.63
2019-04-20T06:04:18.828Z,40.37
2019-04-20T06:05:05.341Z,40.19
2019-04-20T06:06:08.278Z,41.14
2019-04-20T06:06:59.618Z,40.36
2019-04-20T06:09:05.163Z,39.00
2019-04-20T06:10:05.905Z,39.12
2019-04-20T06:11:02.593Z,39.66
2019-04-20T06:12:13.082Z,40.27
2019-04-20T06:13:01.533Z,39.83
2019-04-20T06:13:50.650Z,39.44
2019-04-20T06:14:57.165Z,41.06
2019-04-20T06:16:01.180Z,43.49
2019-04-20T06:17:04.170Z,44.67
2019-04-20T06:17:59.642Z,44.98
2019-04-20T06:19:08.803Z,45.43
2019-04-20T06:20:06.445Z,45.74
2019-04-20T06:21:17.991Z,46.35
2019-04-20T06:22:05.174Z,47.64
2019-04-20T06:23:11.858Z,48.39
2019-04-20T06:24:06.681Z,48.80
2019-04-20T06:25:19.622Z,49.23
2019-04-20T06:26:19.468Z,49.74
2019-04-20T06:27:03.207Z,49.54
2019-04-20T06:28:02.074Z,49.15
2019-04-20T06:28:55.192Z,50.07
2019-04-20T06:30:00.822Z,50.10
2019-04-20T06:30:57.785Z,50.74
2019-04-20T06:32:05.167Z,50.22
2019-04-20T06:33:11.522Z,51.25
2019-04-20T06:35:25.755Z,51.37
2019-04-20T06:38:23.198Z,51.66
2019-04-20T06:39:12.362Z,51.89
2019-04-20T06:40:07.837Z,51.12
2019-04-20T06:41:21.486Z,51.25
2019-04-20T06:43:05.476Z,51.28
2019-04-20T06:44:08.476Z,51.37
2019-04-20T06:45:04.714Z,51.71
2019-04-20T06:46:12.942Z,51.68
2019-04-20T06:48:12.258Z,51.68
2019-04-20T06:49:10.645Z,51.48
2019-04-20T06:50:03.377Z,51.68
2019-04-20T06:50:57.026Z,51.68
2019-04-20T06:52:10.130Z,49.94
2019-04-20T06:53:07.697Z,50.02
2019-04-20T06:53:52.550Z,50.74
2019-04-20T06:54:58.180Z,50.56
2019-04-20T06:56:05.490Z,51.28
2019-04-20T06:58:00.787Z,50.53
2019-04-20T06:59:04.438Z,50.30
2019-04-20T07:00:03.700Z,49.38
2019-04-20T07:01:03.847Z,49.15
2019-04-20T07:02:11.178Z,47.61
2019-04-20T07:03:01.831Z,48.94
2019-04-20T07:04:59.359Z,47.81
2019-04-20T07:06:30.815Z,46.58
2019-04-20T07:07:18.458Z,47.51
2019-04-20T07:08:16.935Z,47.59
2019-04-20T07:09:06.624Z,45.03
2019-04-20T07:10:08.739Z,45.56
2019-04-20T07:11:08.910Z,45.97
2019-04-20T07:12:03.032Z,45.45
2019-04-20T07:12:59.814Z,45.66
2019-04-20T07:13:53.157Z,45.15
2019-04-20T07:14:54.127Z,45.27
2019-04-20T07:15:51.978Z,44.96
2019-04-20T07:17:10.760Z,44.86
2019-04-20T07:18:04.936Z,45.27
2019-04-20T07:19:01.951Z,45.45
2019-04-20T07:20:02.740Z,44.94
2019-04-20T07:20:59.294Z,44.82
2019-04-20T07:23:11.685Z,43.71
2019-04-20T07:24:04.743Z,43.61
2019-04-20T07:25:02.181Z,44.41
2019-04-20T07:26:06.699Z,44.65
2019-04-20T07:27:01.337Z,45.37
2019-04-20T07:28:09.713Z,45.37
2019-04-20T07:29:07.129Z,44.43
2019-04-20T07:30:03.853Z,44.12
2019-04-20T07:31:01.805Z,44.53
2019-04-20T07:31:57.721Z,44.74
2019-04-20T07:33:04.173Z,44.64
2019-04-20T07:34:07.440Z,44.76
2019-04-20T07:35:02.372Z,45.37
2019-04-20T07:36:05.932Z,45.36
2019-04-20T07:37:41.969Z,44.35
2019-04-20T07:38:18.144Z,45.56
2019-04-20T07:39:07.834Z,44.76
2019-04-20T07:40:06.007Z,45.27
2019-04-20T07:40:58.866Z,45.27
2019-04-20T07:42:08.189Z,45.56
2019-04-20T07:43:00.270Z,45.64
2019-04-20T07:44:10.430Z,45.00
2019-04-20T07:45:07.693Z,44.71
2019-04-20T07:46:03.013Z,45.00
2019-04-20T07:47:08.968Z,44.80
2019-04-20T07:48:07.410Z,44.80
2019-04-20T07:49:04.355Z,43.88
2019-04-20T07:49:58.062Z,44.70
2019-04-20T07:50:55.400Z,44.47
2019-04-20T07:51:44.328Z,43.34
2019-04-20T07:52:51.433Z,44.55
2019-04-20T07:54:10.755Z,43.44
2019-04-20T07:55:20.694Z,43.37
2019-04-20T07:56:17.744Z,43.98
2019-04-20T07:57:01.123Z,45.21
2019-04-20T07:57:53.709Z,45.31
2019-04-20T07:58:48.173Z,44.47
2019-04-20T07:59:58.987Z,44.04
2019-04-20T08:01:09.073Z,43.51
2019-04-20T08:02:13.799Z,43.30
2019-04-20T08:03:03.085Z,42.52
2019-04-20T08:04:06.714Z,43.57
2019-04-20T08:04:57.880Z,43.77
2019-04-20T08:05:54.110Z,44.08
2019-04-20T08:06:48.781Z,43.77
2019-04-20T08:08:13.078Z,43.88
2019-04-20T08:08:57.133Z,43.88
2019-04-20T08:09:49.694Z,43.77
2019-04-20T08:10:58.678Z,43.69
2019-04-20T08:12:09.511Z,43.77
2019-04-20T08:13:02.173Z,44.41
2019-04-20T08:14:08.687Z,43.57
2019-04-20T08:15:04.763Z,44.17
2019-04-20T08:16:04.654Z,42.85
2019-04-20T08:17:14.244Z,44.29
2019-04-20T08:17:59.971Z,43.67
2019-04-20T08:18:58.585Z,43.88
2019-04-20T08:19:59.646Z,44.29
2019-04-20T08:20:57.645Z,42.75
2019-04-20T08:22:02.606Z,42.52
2019-04-20T08:22:58.631Z,42.40
2019-04-20T08:24:02.671Z,42.50
2019-04-20T08:24:55.236Z,42.83
2019-04-20T08:25:52.265Z,43.43
2019-04-20T08:26:49.679Z,42.52
2019-04-20T08:27:40.545Z,42.81
2019-04-20T08:28:49.599Z,42.83
2019-04-20T08:29:55.437Z,43.67
2019-04-20T08:30:57.060Z,42.34
2019-04-20T08:31:55.998Z,42.32
2019-04-20T08:32:53.952Z,42.30
2019-04-20T08:34:07.691Z,42.50
2019-04-20T08:35:05.142Z,42.07
2019-04-20T08:36:09.280Z,41.36
2019-04-20T08:37:03.253Z,41.66
2019-04-20T08:38:26.744Z,40.31
2019-04-20T08:41:00.507Z,41.36
2019-04-20T08:43:13.142Z,42.10
2019-04-20T08:44:09.864Z,41.78
2019-04-20T08:45:04.065Z,41.48
2019-04-20T08:46:05.257Z,40.64
2019-04-20T08:47:14.733Z,40.52
2019-04-20T08:48:09.852Z,41.44
2019-04-20T08:49:03.981Z,41.75
2019-04-20T08:50:15.159Z,41.15
2019-04-20T08:51:04.747Z,41.58
2019-04-20T08:52:20.970Z,41.27
2019-04-20T08:53:15.914Z,39.92
2019-04-20T08:53:59.682Z,39.70
2019-04-20T08:55:01.253Z,40.31
2019-04-20T08:55:52.470Z,40.21
2019-04-20T08:56:47.029Z,39.11
2019-04-20T08:57:42.449Z,39.92
2019-04-20T08:58:41.437Z,38.70
2019-04-20T08:59:43.625Z,38.71
2019-04-20T09:00:49.620Z,39.94
2019-04-20T09:01:42.670Z,39.02
2019-04-20T09:02:47.947Z,39.00
2019-04-20T09:03:52.995Z,38.70
2019-04-20T09:04:48.985Z,38.70
2019-04-20T09:05:52.309Z,39.12
2019-04-20T09:06:54.629Z,38.82
2019-04-20T09:07:53.897Z,38.82
2019-04-20T09:08:50.544Z,38.57
2019-04-20T09:11:09.990Z,38.49
2019-04-20T09:12:18.002Z,38.51
2019-04-20T09:13:08.412Z,39.25
2019-04-20T09:13:59.135Z,39.33
2019-04-20T09:14:55.641Z,39.55
2019-04-20T09:15:55.620Z,39.45
2019-04-20T09:16:59.821Z,39.45
2019-04-20T09:17:59.464Z,39.25
2019-04-20T09:19:03.599Z,39.25
2019-04-20T09:20:06.309Z,38.84
2019-04-20T09:21:03.436Z,38.93
2019-04-20T09:22:09.815Z,38.51
2019-04-20T09:23:13.214Z,39.12
2019-04-20T09:24:22.770Z,39.33
2019-04-20T09:25:35.227Z,39.11
2019-04-20T09:26:29.696Z,38.49
2019-04-20T09:27:08.749Z,39.23
2019-04-20T09:28:07.207Z,39.12
2019-04-20T09:29:07.313Z,39.14
2019-04-20T09:30:09.037Z,39.33
2019-04-20T09:31:14.318Z,38.84
2019-04-20T09:32:11.395Z,39.65
2019-04-20T09:33:16.783Z,39.86
2019-04-20T09:34:11.733Z,40.56
2019-04-20T09:35:13.609Z,40.17
2019-04-20T09:36:09.797Z,40.27
2019-04-20T09:37:16.504Z,39.51
2019-04-20T09:38:11.838Z,39.02
2019-04-20T09:39:05.468Z,39.31
2019-04-20T09:40:16.116Z,38.90
2019-04-20T09:42:09.093Z,39.23
2019-04-20T09:43:09.177Z,39.41
2019-04-20T09:44:09.094Z,38.68
2019-04-20T09:45:13.533Z,39.23
2019-04-20T09:46:10.530Z,38.59
2019-04-20T09:47:10.467Z,38.90
2019-04-20T09:48:15.695Z,38.82
2019-04-20T09:49:20.625Z,38.70
2019-04-20T09:50:27.895Z,39.21
2019-04-20T09:51:30.443Z,38.98
2019-04-20T09:52:25.449Z,39.09
2019-04-20T09:53:24.780Z,38.98
2019-04-20T09:54:30.006Z,38.78
2019-04-20T09:55:21.659Z,39.21
2019-04-20T09:56:23.978Z,38.80
2019-04-20T09:57:29.485Z,39.00
2019-04-20T09:58:21.304Z,39.11
2019-04-20T09:59:21.974Z,38.90
2019-04-20T10:00:25.786Z,39.21
2019-04-20T10:01:22.753Z,38.92
2019-04-20T10:02:16.820Z,39.92
2019-04-20T10:03:10.791Z,39.33
2019-04-20T10:04:08.853Z,38.90
2019-04-20T10:05:09.437Z,38.90
2019-04-20T10:06:09.729Z,38.57
2019-04-20T10:07:14.507Z,39.31
2019-04-20T10:08:11.378Z,39.11
2019-04-20T10:09:09.625Z,38.71
2019-04-20T10:10:21.396Z,39.31
2019-04-20T10:11:09.844Z,39.31
2019-04-20T10:12:22.339Z,39.00
2019-04-20T10:13:09.153Z,39.21
2019-04-20T10:14:10.029Z,39.11
2019-04-20T10:15:15.953Z,38.57
2019-04-20T10:16:09.745Z,38.78
2019-04-20T10:17:09.692Z,38.45
2019-04-20T10:18:09.950Z,38.57
2019-04-20T10:19:11.459Z,38.47
2019-04-20T10:20:15.038Z,39.39
2019-04-20T10:21:09.760Z,39.00
2019-04-20T10:22:08.655Z,38.80
2019-04-20T10:23:08.800Z,39.02
2019-04-20T10:24:08.657Z,39.51
2019-04-20T10:25:08.724Z,39.12
2019-04-20T10:26:08.884Z,39.33
2019-04-20T10:27:08.591Z,39.02
2019-04-20T10:28:09.452Z,39.33
2019-04-20T10:29:09.841Z,38.90
2019-04-20T10:30:08.554Z,38.70
2019-04-20T10:31:08.566Z,39.23
2019-04-20T10:32:12.570Z,39.23
2019-04-20T10:33:09.935Z,39.11
2019-04-20T10:34:09.454Z,38.90
2019-04-20T10:35:09.027Z,38.88
2019-04-20T10:36:09.768Z,38.96
2019-04-20T10:37:09.381Z,38.44
2019-04-20T10:38:09.600Z,39.07
2019-04-20T10:39:08.801Z,39.51
2019-04-20T10:40:08.452Z,40.05
2019-04-20T10:41:16.364Z,40.15
2019-04-20T10:42:10.102Z,40.11
2019-04-20T10:43:21.937Z,39.90
2019-04-20T10:44:09.167Z,39.60
2019-04-20T10:45:08.783Z,38.66
2019-04-20T10:46:08.938Z,38.88
2019-04-20T10:47:09.167Z,38.78
2019-04-20T10:48:08.981Z,38.78
2019-04-20T10:49:09.656Z,39.09
2019-04-20T10:50:09.254Z,38.82
2019-04-20T10:51:08.484Z,39.11
2019-04-20T10:52:09.508Z,39.23
2019-04-20T10:53:08.299Z,38.80
2019-04-20T10:54:08.718Z,38.80
2019-04-20T10:55:08.481Z,38.88
2019-04-20T10:56:09.501Z,38.70
2019-04-20T10:57:08.259Z,40.23
2019-04-20T10:58:09.336Z,39.64
2019-04-20T10:59:09.704Z,39.53
2019-04-20T11:00:08.232Z,40.45
2019-04-20T11:01:09.505Z,39.41
2019-04-20T11:02:08.212Z,40.11
2019-04-20T11:03:08.194Z,38.98
2019-04-20T11:04:08.515Z,38.76
2019-04-20T11:05:08.611Z,38.66
2019-04-20T11:06:08.993Z,39.50
2019-04-20T11:07:08.335Z,38.78
2019-04-20T11:08:08.529Z,39.39
2019-04-20T11:09:08.920Z,39.07
2019-04-20T11:10:16.684Z,38.88
2019-04-20T11:11:16.379Z,38.78
2019-04-20T11:12:10.352Z,38.25
2019-04-20T11:13:09.536Z,38.15
2019-04-20T11:14:26.582Z,38.76
2019-04-20T11:15:10.149Z,39.07
2019-04-20T11:16:08.525Z,38.78
2019-04-20T11:17:08.705Z,38.57
2019-04-20T11:18:09.161Z,38.37
2019-04-20T11:19:09.327Z,38.78
2019-04-20T11:20:09.567Z,38.78
2019-04-20T11:21:09.189Z,39.50
2019-04-20T11:22:08.841Z,38.78
2019-04-20T11:23:08.495Z,38.88
2019-04-20T11:24:08.193Z,39.09
2019-04-20T11:25:08.275Z,38.57
2019-04-20T11:26:08.543Z,39.28
2019-04-20T11:27:08.065Z,37.95
2019-04-20T11:28:08.230Z,37.76
2019-04-20T11:29:08.405Z,38.27
2019-04-20T11:30:08.082Z,38.04
2019-04-20T11:31:08.112Z,37.84
2019-04-20T11:32:09.292Z,38.45
2019-04-20T11:33:07.878Z,37.84
2019-04-20T11:34:08.080Z,37.95
2019-04-20T11:35:18.050Z,37.43
2019-04-20T11:36:09.423Z,37.95
2019-04-20T11:37:08.923Z,37.95
2019-04-20T11:38:10.757Z,37.96
2019-04-20T11:39:09.131Z,38.17
2019-04-20T11:40:08.697Z,38.68
2019-04-20T11:41:16.493Z,38.57
2019-04-20T11:42:09.973Z,38.06
2019-04-20T11:43:07.961Z,38.47
2019-04-20T11:44:09.555Z,39.41
2019-04-20T11:45:20.553Z,38.80
2019-04-20T11:46:08.989Z,38.39
2019-04-20T11:47:08.509Z,38.56
2019-04-20T11:48:07.696Z,37.95
2019-04-20T11:49:07.930Z,38.56
2019-04-20T11:50:07.670Z,37.86
2019-04-20T11:51:07.657Z,37.84
2019-04-20T11:52:07.809Z,37.95
2019-04-20T11:53:08.955Z,37.93
2019-04-20T11:54:08.293Z,37.43
2019-04-20T11:55:08.523Z,37.74
2019-04-20T11:56:15.920Z,37.86
2019-04-20T11:57:09.047Z,38.27
2019-04-20T11:58:08.100Z,38.04
2019-04-20T11:59:07.574Z,37.95
2019-04-20T12:00:08.737Z,37.52
2019-04-20T12:01:13.089Z,36.90
2019-04-20T12:02:10.816Z,36.90
2019-04-20T12:03:16.339Z,36.92
2019-04-20T12:04:18.708Z,37.62
2019-04-20T12:05:21.423Z,37.01
2019-04-20T12:06:08.758Z,38.04
2019-04-20T12:07:08.753Z,37.84
2019-04-20T12:08:07.526Z,37.33
2019-04-20T12:09:07.458Z,37.82
2019-04-20T12:10:13.461Z,37.63
2019-04-20T12:11:22.754Z,37.41
2019-04-20T12:12:18.333Z,37.84
2019-04-20T12:13:09.807Z,37.95
2019-04-20T12:14:07.404Z,37.74
2019-04-20T12:15:08.664Z,38.27
2019-04-20T12:16:21.473Z,37.98
2019-04-20T12:17:07.910Z,38.57
2019-04-20T12:18:07.552Z,38.35
2019-04-20T12:19:08.611Z,37.95
2019-04-20T12:20:08.055Z,37.72
2019-04-20T12:21:08.555Z,37.84
2019-04-20T12:22:07.641Z,37.63
2019-04-20T12:23:08.541Z,37.84
2019-04-20T12:24:07.305Z,38.25
2019-04-20T12:25:07.913Z,39.09
2019-04-20T12:26:07.290Z,38.17
2019-04-20T12:27:07.262Z,38.68
2019-04-20T12:28:07.496Z,38.27
2019-04-20T12:29:07.930Z,38.78
2019-04-20T12:30:07.896Z,38.88
2019-04-20T12:31:11.877Z,37.86
2019-04-20T12:32:09.008Z,38.35
2019-04-20T12:33:07.465Z,37.74
2019-04-20T12:34:08.469Z,37.86
2019-04-20T12:35:08.475Z,37.86
2019-04-20T12:36:08.034Z,38.27
2019-04-20T12:37:07.202Z,38.15
2019-04-20T12:38:07.370Z,38.27
2019-04-20T12:39:07.130Z,38.45
2019-04-20T12:40:07.236Z,37.95
2019-04-20T12:41:09.181Z,37.76
2019-04-20T12:42:09.381Z,38.57
2019-04-20T12:43:07.082Z,39.09
2019-04-20T12:44:07.940Z,39.00
2019-04-20T12:45:08.014Z,38.39
2019-04-20T12:46:07.676Z,38.98
2019-04-20T12:47:19.705Z,38.76
2019-04-20T12:48:08.043Z,38.37
2019-04-20T12:49:07.635Z,38.35
2019-04-20T12:50:07.658Z,38.66
2019-04-20T12:51:07.922Z,38.35
2019-04-20T12:52:08.275Z,38.57
2019-04-20T12:53:06.977Z,38.57
2019-04-20T12:54:06.983Z,38.78
2019-04-20T12:55:08.346Z,38.88
2019-04-20T12:56:06.950Z,38.17
2019-04-20T12:57:06.979Z,38.70
2019-04-20T12:58:08.042Z,38.70
2019-04-20T12:59:07.461Z,38.39
2019-04-20T13:00:07.692Z,39.50
2019-04-20T13:01:07.467Z,38.78
2019-04-20T13:02:07.087Z,38.66
2019-04-20T13:03:07.493Z,38.56
2019-04-20T13:04:08.957Z,38.45
2019-04-20T13:05:07.204Z,38.57
2019-04-20T13:06:07.985Z,38.80
2019-04-20T13:07:07.922Z,38.78
2019-04-20T13:08:07.597Z,39.09
2019-04-20T13:09:06.883Z,38.88
2019-04-20T13:10:07.758Z,38.35
2019-04-20T13:11:06.772Z,38.04
2019-04-20T13:12:09.916Z,37.95
2019-04-20T13:13:08.136Z,37.86
2019-04-20T13:14:06.748Z,38.37
2019-04-20T13:15:06.771Z,38.61
2019-04-20T13:16:08.047Z,39.04
2019-04-20T13:17:06.709Z,39.43
2019-04-20T13:18:19.155Z,39.84
2019-04-20T13:19:06.686Z,39.11
2019-04-20T13:20:07.889Z,38.90
2019-04-20T13:21:07.190Z,39.31
2019-04-20T13:22:07.375Z,38.39